Time;durP1;ratioP1;P1;durP2;ratioP2;P2;SDS_P1;SDS_P2;PMS_P1;PMS_P2;Temp;Humidity;BMP_temperature;BMP_pressure;BME280_temperature;BME280_humidity;BME280_pressure;Samples;Min_cycle;Max_cycle;Signal;HPM_P1;HPM_P2
2022/06/23 00:02:16;;;;;;;6.50;2.50;;;13.10;68.20;;;;;;5054775;28;20532;-80
2022/06/23 00:04:46;;;;;;;11.33;2.57;;;13.30;67.40;;;;;;5073374;28;20236;-77
2022/06/23 00:08:00;;;;;;;4.37;2.50;;;13.40;67.00;;;;;;5062944;28;20180;-82
2022/06/23 00:10:47;;;;;;;5.17;2.83;;;13.50;66.30;;;;;;5071388;28;20182;-84
2022/06/23 00:13:41;;;;;;;11.17;3.37;;;13.60;66.50;;;;;;5073867;28;20206;-81
2022/06/23 00:16:26;;;;;;;7.97;3.00;;;13.70;66.40;;;;;;5078178;28;20191;-83
2022/06/23 00:18:57;;;;;;;7.73;2.60;;;13.80;66.10;;;;;;5072598;28;20180;-80
2022/06/23 00:21:47;;;;;;;5.50;2.83;;;13.90;65.00;;;;;;5056846;28;20624;-81
2022/06/23 00:24:26;;;;;;;8.33;2.60;;;14.00;64.30;;;;;;5073149;28;20175;-76
2022/06/23 00:26:54;;;;;;;7.67;2.60;;;14.10;64.50;;;;;;5085677;28;20222;-77
2022/06/23 00:29:24;;;;;;;4.57;2.30;;;14.30;64.70;;;;;;5094746;28;20163;-82
2022/06/23 00:31:58;;;;;;;7.63;2.40;;;14.30;64.10;;;;;;5060554;28;20294;-82
2022/06/23 00:34:38;;;;;;;8.67;5.00;;;14.40;63.70;;;;;;5054250;28;20542;-79
2022/06/23 00:37:11;;;;;;;5.77;2.83;;;14.50;64.00;;;;;;5055132;28;20512;-78
2022/06/23 00:39:41;;;;;;;6.43;3.27;;;14.70;63.30;;;;;;5084536;28;20708;-78
2022/06/23 00:42:46;;;;;;;8.50;3.07;;;14.70;62.50;;;;;;5079100;28;20186;-77
2022/06/23 00:45:23;;;;;;;8.00;3.20;;;14.80;62.10;;;;;;5071708;28;20298;-80
2022/06/23 00:47:59;;;;;;;6.70;2.50;;;14.80;62.50;;;;;;5083422;28;20174;-79
2022/06/23 00:50:36;;;;;;;6.00;2.40;;;15.10;61.90;;;;;;5077596;28;20204;-78
2022/06/23 00:53:21;;;;;;;9.70;2.60;;;15.20;61.60;;;;;;5067574;28;20255;-80
2022/06/23 00:56:00;;;;;;;8.40;2.87;;;15.30;60.90;;;;;;5072181;28;20640;-77
2022/06/23 00:58:28;;;;;;;2.90;1.80;;;15.30;60.90;;;;;;5075769;28;20581;-78
2022/06/23 01:01:04;;;;;;;3.80;2.00;;;15.30;59.70;;;;;;5061244;28;20176;-82
2022/06/23 01:03:42;;;;;;;4.90;1.87;;;15.60;59.20;;;;;;5061885;28;20188;-82
2022/06/23 01:06:13;;;;;;;10.90;5.73;;;15.70;58.70;;;;;;5067104;28;20624;-78
2022/06/23 01:08:58;;;;;;;11.87;5.80;;;15.90;59.00;;;;;;5076235;28;20686;-78
2022/06/23 01:11:42;;;;;;;4.63;1.53;;;16.10;58.70;;;;;;5091378;28;20221;-76
2022/06/23 01:14:18;;;;;;;5.67;1.97;;;16.30;57.00;;;;;;5074284;28;20183;-76
2022/06/23 01:16:45;;;;;;;7.03;1.80;;;16.40;56.50;;;;;;5070917;28;20187;-75
2022/06/23 01:19:36;;;;;;;8.23;1.83;;;16.50;56.00;;;;;;5070571;28;20564;-79
2022/06/23 01:22:17;;;;;;;2.20;1.40;;;16.60;55.50;;;;;;5067419;28;20180;-77
2022/06/23 01:24:59;;;;;;;3.30;1.17;;;16.70;55.20;;;;;;5064353;28;20184;-78
2022/06/23 01:27:54;;;;;;;3.30;1.37;;;16.80;54.50;;;;;;5071667;28;20311;-77
2022/06/23 01:30:22;;;;;;;2.87;1.17;;;16.80;53.90;;;;;;5066822;28;20286;-79
2022/06/23 01:33:07;;;;;;;4.13;1.17;;;16.90;53.20;;;;;;5076867;28;20242;-79
2022/06/23 01:35:48;;;;;;;2.83;1.33;;;17.20;53.50;;;;;;5070834;28;20266;-81
2022/06/23 01:38:35;;;;;;;2.97;1.17;;;17.30;53.10;;;;;;5066337;28;20183;-79
2022/06/23 01:41:13;;;;;;;2.43;1.27;;;17.50;52.40;;;;;;5072304;28;20181;-80
2022/06/23 01:44:30;;;;;;;2.10;0.93;;;17.80;52.20;;;;;;5069159;28;20273;-80
2022/06/23 01:47:11;;;;;;;2.63;1.03;;;17.80;51.90;;;;;;5068144;28;20766;-79
2022/06/23 01:49:43;;;;;;;2.17;0.90;;;17.80;51.20;;;;;;5071883;28;20191;-78
2022/06/23 01:52:21;;;;;;;3.27;1.10;;;17.90;50.70;;;;;;5068552;28;20214;-82
2022/06/23 01:54:57;;;;;;;2.37;1.30;;;17.70;51.10;;;;;;5063621;28;20257;-81
2022/06/23 01:57:37;;;;;;;3.57;1.30;;;17.80;50.70;;;;;;5063495;28;20193;-77
2022/06/23 02:00:16;;;;;;;3.10;1.23;;;18.00;51.30;;;;;;5070434;28;20190;-78
2022/06/23 02:02:47;;;;;;;2.87;1.27;;;18.30;51.20;;;;;;5069010;28;20833;-79
2022/06/23 02:05:33;;;;;;;3.30;1.30;;;18.40;49.30;;;;;;5067688;28;20262;-77
2022/06/23 02:08:08;;;;;;;2.03;1.07;;;18.30;50.20;;;;;;5067582;28;20186;-77
2022/06/23 02:10:36;;;;;;;3.90;0.90;;;18.30;49.60;;;;;;5069691;28;20180;-79
2022/06/23 02:13:07;;;;;;;2.27;0.90;;;18.20;49.30;;;;;;5068754;28;20238;-76
2022/06/23 02:16:01;;;;;;;1.50;0.90;;;17.80;49.50;;;;;;5068025;28;20271;-76
2022/06/23 02:18:34;;;;;;;2.30;0.70;;;17.70;50.30;;;;;;5064036;28;20545;-75
2022/06/23 02:21:20;;;;;;;0.77;0.60;;;17.80;49.70;;;;;;5070525;28;20273;-76
2022/06/23 02:23:56;;;;;;;0.80;0.80;;;18.00;49.70;;;;;;5068158;28;20179;-76
2022/06/23 02:26:37;;;;;;;0.93;0.70;;;17.80;50.50;;;;;;5068391;28;20218;-73
2022/06/23 02:29:16;;;;;;;2.80;0.90;;;17.80;50.40;;;;;;5070793;28;20553;-76
2022/06/23 02:32:07;;;;;;;0.90;0.80;;;17.70;50.70;;;;;;5062274;28;20213;-74
2022/06/23 02:34:55;;;;;;;1.70;0.90;;;17.70;51.20;;;;;;5065494;28;20617;-77
2022/06/23 02:37:44;;;;;;;1.77;0.80;;;17.80;51.30;;;;;;5052653;28;20175;-78
2022/06/23 02:40:34;;;;;;;2.53;1.10;;;18.10;50.50;;;;;;5052327;28;20221;-79
2022/06/23 02:43:11;;;;;;;2.17;0.90;;;18.30;50.20;;;;;;5051604;28;20645;-80
2022/06/23 02:46:01;;;;;;;1.53;0.90;;;18.50;49.70;;;;;;5052556;28;20268;-79
2022/06/23 02:49:06;;;;;;;1.50;0.90;;;18.50;49.60;;;;;;5052387;28;20180;-77
2022/06/23 02:51:52;;;;;;;0.70;0.60;;;18.70;49.50;;;;;;5055608;28;20206;-77
2022/06/23 02:54:46;;;;;;;1.47;0.93;;;18.60;48.90;;;;;;5067946;28;20172;-75
2022/06/23 02:57:19;;;;;;;0.90;0.70;;;18.60;49.60;;;;;;5056134;28;20263;-76
2022/06/23 02:59:55;;;;;;;0.70;0.70;;;18.60;49.00;;;;;;5056194;28;20245;-74
2022/06/23 03:02:27;;;;;;;1.67;0.73;;;18.50;49.50;;;;;;5071698;28;20260;-79
2022/06/23 03:05:00;;;;;;;1.00;0.87;;;18.40;50.20;;;;;;5056213;28;20176;-80
2022/06/23 03:07:32;;;;;;;1.03;0.80;;;18.40;49.80;;;;;;5059425;28;20239;-76
2022/06/23 03:10:41;;;;;;;2.40;0.70;;;18.60;49.80;;;;;;5056326;28;20176;-76
2022/06/23 03:13:42;;;;;;;1.00;0.90;;;18.50;50.20;;;;;;5056194;28;20229;-77
2022/06/23 03:16:09;;;;;;;1.70;0.80;;;18.40;50.80;;;;;;5055896;28;20248;-82
2022/06/23 03:18:55;;;;;;;1.17;0.80;;;18.80;49.60;;;;;;5071778;28;20195;-78
2022/06/23 03:21:29;;;;;;;1.40;0.90;;;18.80;49.80;;;;;;5076229;28;20216;-72
2022/06/23 03:24:08;;;;;;;1.10;0.70;;;18.70;49.70;;;;;;5055971;28;20236;-78
2022/06/23 03:27:06;;;;;;;1.90;1.63;;;18.70;50.00;;;;;;5055671;28;20743;-74
2022/06/23 03:30:01;;;;;;;0.70;0.60;;;18.90;50.30;;;;;;5053068;28;20253;-80
2022/06/23 03:32:46;;;;;;;1.00;0.80;;;19.30;49.00;;;;;;5051804;28;20242;-77
2022/06/23 03:35:42;;;;;;;2.17;1.20;;;19.40;49.00;;;;;;5055741;28;20175;-81
2022/06/23 03:41:55;;;;;;;2.07;0.80;;;19.90;47.70;;;;;;5057636;28;20191;-80
2022/06/23 03:44:58;;;;;;;3.60;0.90;;;20.50;46.60;;;;;;5056776;28;20188;-84
2022/06/23 03:48:10;;;;;;;2.77;1.57;;;20.50;46.30;;;;;;5068774;28;20217;-81
2022/06/23 03:51:06;;;;;;;1.17;0.70;;;20.50;46.60;;;;;;5066880;28;20256;-79
2022/06/23 03:54:07;;;;;;;0.70;0.70;;;20.80;45.30;;;;;;5055690;28;20224;-80
2022/06/23 03:56:48;;;;;;;3.13;0.50;;;20.80;43.70;;;;;;5068265;28;20660;-80
2022/06/23 03:59:17;;;;;;;0.50;0.50;;;20.60;42.30;;;;;;5076954;28;20187;-80
2022/06/23 04:01:55;;;;;;;0.40;0.40;;;20.40;43.20;;;;;;5077519;28;20509;-72
2022/06/23 04:04:48;;;;;;;0.70;0.40;;;20.60;42.90;;;;;;5076543;28;20175;-86
2022/06/23 04:07:36;;;;;;;2.43;0.50;;;20.40;43.20;;;;;;5066886;28;20249;-87
2022/06/23 04:10:16;;;;;;;0.83;0.40;;;20.60;43.20;;;;;;5054809;28;20661;-83
2022/06/23 04:12:53;;;;;;;1.50;0.60;;;21.10;42.20;;;;;;5072794;28;20219;-80
2022/06/23 04:15:38;;;;;;;0.50;0.50;;;20.90;42.30;;;;;;5069869;28;20266;-83
2022/06/23 04:18:29;;;;;;;2.23;0.40;;;21.30;41.60;;;;;;5059244;28;20176;-76
2022/06/23 04:21:13;;;;;;;3.87;0.50;;;21.00;41.60;;;;;;5078939;28;20181;-82
2022/06/23 04:23:49;;;;;;;0.47;0.40;;;20.60;42.80;;;;;;5073876;28;20190;-80
2022/06/23 04:26:29;;;;;;;0.50;0.47;;;20.50;42.70;;;;;;5061238;28;20318;-77
2022/06/23 04:29:06;;;;;;;0.50;0.50;;;20.60;42.80;;;;;;5061728;28;20187;-78
2022/06/23 04:32:14;;;;;;;0.40;0.40;;;20.90;42.70;;;;;;5054751;28;20205;-78
2022/06/23 04:35:04;;;;;;;0.40;0.40;;;21.00;42.30;;;;;;5032902;28;20184;-73
2022/06/23 04:37:35;;;;;;;1.90;0.30;;;20.80;42.50;;;;;;5032516;28;20188;-80
2022/06/23 04:40:14;;;;;;;0.30;0.30;;;20.30;43.10;;;;;;5055267;28;20176;-74
2022/06/23 04:42:53;;;;;;;2.50;0.40;;;20.20;43.70;;;;;;5067489;28;20630;-81
2022/06/23 04:45:35;;;;;;;1.30;0.47;;;20.40;42.50;;;;;;5055114;28;20317;-77
2022/06/23 04:48:25;;;;;;;1.33;0.60;;;20.70;42.10;;;;;;5054811;28;20259;-77
2022/06/23 04:51:04;;;;;;;2.80;0.40;;;20.30;42.50;;;;;;5066491;28;20668;-76
2022/06/23 04:53:49;;;;;;;0.63;0.47;;;20.30;42.40;;;;;;5058534;28;20220;-77
2022/06/23 04:56:23;;;;;;;0.73;0.67;;;20.00;42.60;;;;;;5053530;28;20242;-78
2022/06/23 04:58:56;;;;;;;0.93;0.50;;;20.00;43.20;;;;;;5062577;28;20183;-74
2022/06/23 05:01:28;;;;;;;3.23;0.50;;;20.00;42.90;;;;;;5060895;28;20184;-83
2022/06/23 05:03:59;;;;;;;0.73;0.50;;;20.00;43.10;;;;;;5053937;28;20585;-78
2022/06/23 05:06:38;;;;;;;0.40;0.40;;;20.10;42.40;;;;;;5056477;28;20172;-80
2022/06/23 05:09:14;;;;;;;0.50;0.50;;;20.20;42.40;;;;;;5054107;28;20179;-80
2022/06/23 05:11:56;;;;;;;0.97;0.50;;;20.00;42.80;;;;;;5053653;28;20199;-83
2022/06/23 05:14:36;;;;;;;3.60;0.60;;;19.90;42.80;;;;;;5067979;28;20202;-74
2022/06/23 05:17:19;;;;;;;1.90;0.50;;;20.10;42.30;;;;;;5071707;28;20533;-74
2022/06/23 05:19:48;;;;;;;0.60;0.40;;;20.10;42.10;;;;;;5060405;28;20272;-74
2022/06/23 05:22:36;;;;;;;2.00;0.50;;;19.90;42.60;;;;;;5063821;28;20184;-75
2022/06/23 05:25:37;;;;;;;1.93;0.60;;;19.40;43.70;;;;;;5053558;28;20176;-75
2022/06/23 05:28:13;;;;;;;0.77;0.63;;;19.30;43.80;;;;;;5063151;28;20221;-78
2022/06/23 05:30:48;;;;;;;1.03;0.60;;;19.80;43.10;;;;;;5067844;28;20179;-77
2022/06/23 05:33:31;;;;;;;0.70;0.60;;;19.90;42.10;;;;;;5073220;28;20236;-84
2022/06/23 05:36:06;;;;;;;2.40;0.90;;;20.10;42.50;;;;;;5070001;28;20175;-76
2022/06/23 05:38:41;;;;;;;0.50;0.43;;;19.70;43.10;;;;;;5070869;28;20256;-78
2022/06/23 05:41:29;;;;;;;0.97;0.60;;;19.90;42.80;;;;;;5058282;28;20175;-72
2022/06/23 05:43:59;;;;;;;0.67;0.60;;;19.50;43.20;;;;;;5052133;28;20176;-73
2022/06/23 05:46:29;;;;;;;0.87;0.53;;;19.20;44.10;;;;;;5067788;28;20329;-78
2022/06/23 05:49:00;;;;;;;0.40;0.40;;;19.10;44.40;;;;;;5075739;28;20269;-81
2022/06/23 05:51:57;;;;;;;2.20;0.50;;;19.30;44.70;;;;;;5053358;28;20175;-75
2022/06/23 05:54:37;;;;;;;0.50;0.47;;;18.80;45.10;;;;;;5078451;28;20554;-75
2022/06/23 05:57:24;;;;;;;2.87;0.50;;;18.30;46.80;;;;;;5052333;28;20236;-84
2022/06/23 06:00:14;;;;;;;2.93;0.50;;;18.20;47.20;;;;;;5063884;28;20633;-76
2022/06/23 06:03:00;;;;;;;0.70;0.50;;;18.60;46.00;;;;;;5065280;28;20171;-76
2022/06/23 06:05:34;;;;;;;0.60;0.57;;;18.40;46.20;;;;;;5065551;28;20183;-76
2022/06/23 06:08:07;;;;;;;0.60;0.40;;;18.10;47.00;;;;;;5069000;28;20183;-82
2022/06/23 06:10:35;;;;;;;2.63;0.70;;;17.50;48.60;;;;;;5079433;28;20268;-79
2022/06/23 06:13:07;;;;;;;0.60;0.60;;;17.30;49.70;;;;;;5066468;28;20254;-81
2022/06/23 06:15:40;;;;;;;0.63;0.63;;;17.10;50.10;;;;;;5053321;28;20185;-84
2022/06/23 06:18:15;;;;;;;1.67;0.70;;;16.90;50.80;;;;;;5052699;28;20218;-72
2022/06/23 06:20:42;;;;;;;1.23;0.70;;;16.80;50.90;;;;;;5073368;28;20175;-83
2022/06/23 06:23:15;;;;;;;1.23;0.70;;;16.70;51.50;;;;;;5068806;28;20192;-77
2022/06/23 06:25:48;;;;;;;1.13;0.87;;;16.70;51.80;;;;;;5064894;28;20181;-80
2022/06/23 06:28:28;;;;;;;0.63;0.63;;;16.60;52.00;;;;;;5052644;28;20262;-76
2022/06/23 06:31:03;;;;;;;1.23;0.70;;;16.50;52.50;;;;;;5080810;28;20441;-76
2022/06/23 06:34:03;;;;;;;2.00;0.80;;;16.50;52.60;;;;;;5062971;28;20215;-74
2022/06/23 06:36:43;;;;;;;1.80;0.70;;;16.30;52.80;;;;;;5085404;28;20200;-80
2022/06/23 06:39:21;;;;;;;0.60;0.60;;;16.30;53.20;;;;;;5067435;28;20223;-77
2022/06/23 06:42:01;;;;;;;0.80;0.77;;;16.30;53.10;;;;;;5066317;28;20195;-77
2022/06/23 06:44:32;;;;;;;0.93;0.73;;;16.30;53.30;;;;;;5052451;28;20184;-79
2022/06/23 06:47:03;;;;;;;1.40;0.87;;;16.20;53.90;;;;;;5064729;28;20175;-77
2022/06/23 06:49:32;;;;;;;3.37;0.90;;;16.10;53.90;;;;;;5063530;28;20179;-79
2022/06/23 06:52:01;;;;;;;1.10;1.00;;;16.00;54.30;;;;;;5069916;28;20656;-77
2022/06/23 06:54:36;;;;;;;1.00;0.90;;;15.80;54.90;;;;;;5057601;28;20182;-76
2022/06/23 06:57:09;;;;;;;1.10;0.90;;;15.80;55.30;;;;;;5069207;28;20178;-77
2022/06/23 06:59:43;;;;;;;1.20;1.10;;;15.70;55.90;;;;;;5069277;28;20551;-74
2022/06/23 07:02:25;;;;;;;3.63;0.93;;;15.60;55.80;;;;;;5060294;28;20632;-78
2022/06/23 07:05:07;;;;;;;1.10;1.00;;;15.50;56.20;;;;;;5067040;28;20216;-77
2022/06/23 07:07:47;;;;;;;1.57;1.10;;;15.50;56.70;;;;;;5065627;28;20175;-73
2022/06/23 07:10:23;;;;;;;2.43;1.10;;;15.40;56.90;;;;;;5072333;28;20190;-75
2022/06/23 07:13:00;;;;;;;1.53;1.37;;;15.30;56.80;;;;;;5052026;28;20203;-74
2022/06/23 07:15:38;;;;;;;3.03;0.87;;;15.30;57.30;;;;;;5051076;28;20224;-76
2022/06/23 07:18:19;;;;;;;1.37;1.00;;;15.20;57.80;;;;;;5062371;28;20247;-76
2022/06/23 07:20:54;;;;;;;1.77;1.17;;;15.10;57.80;;;;;;5063813;28;20198;-76
2022/06/23 07:23:35;;;;;;;2.70;1.13;;;15.10;57.70;;;;;;5068875;28;20182;-78
2022/06/23 07:26:29;;;;;;;3.17;1.00;;;15.10;57.70;;;;;;5069025;28;20596;-74
2022/06/23 07:29:23;;;;;;;3.37;1.20;;;15.00;57.90;;;;;;5061735;28;20221;-79
2022/06/23 07:32:31;;;;;;;1.23;1.00;;;15.00;58.10;;;;;;5080111;28;20246;-79
2022/06/23 07:35:23;;;;;;;1.60;1.03;;;15.00;58.00;;;;;;5060003;28;20667;-78
2022/06/23 07:38:15;;;;;;;1.70;1.20;;;14.90;57.60;;;;;;5053864;28;20318;-78
2022/06/23 07:41:13;;;;;;;2.00;1.20;;;14.90;58.30;;;;;;5056144;28;20654;-75
2022/06/23 07:44:03;;;;;;;6.33;1.43;;;14.80;58.90;;;;;;5061975;28;20542;-76
2022/06/23 07:46:32;;;;;;;3.37;1.30;;;14.70;59.40;;;;;;5063919;28;20260;-77
2022/06/23 07:49:00;;;;;;;3.40;1.67;;;14.70;59.90;;;;;;5056756;28;20505;-78
2022/06/23 07:51:28;;;;;;;4.00;1.33;;;14.60;60.20;;;;;;5057202;28;20180;-77
2022/06/23 07:53:57;;;;;;;6.50;1.70;;;14.50;60.20;;;;;;5062653;28;20190;-78
2022/06/23 07:56:31;;;;;;;2.77;1.20;;;14.50;60.50;;;;;;5054612;28;20259;-77
2022/06/23 07:59:12;;;;;;;1.53;1.37;;;14.40;60.50;;;;;;5054717;28;20176;-77
2022/06/23 08:01:53;;;;;;;3.90;1.83;;;14.30;60.90;;;;;;5064765;28;20187;-76
2022/06/23 08:04:32;;;;;;;4.23;1.70;;;14.30;60.90;;;;;;5064478;28;20171;-75
2022/06/23 08:07:04;;;;;;;2.67;1.63;;;14.30;61.00;;;;;;5056943;28;20180;-76
2022/06/23 08:10:00;;;;;;;6.90;1.70;;;14.30;61.10;;;;;;5062776;28;20180;-77
2022/06/23 08:12:56;;;;;;;2.40;1.60;;;14.20;61.20;;;;;;5061993;28;20222;-77
2022/06/23 08:18:47;;;;;;;4.03;1.80;;;14.20;61.70;;;;;;5064261;28;20218;-77
2022/06/23 08:21:42;;;;;;;2.13;1.70;;;14.10;61.70;;;;;;5065705;28;20179;-76
2022/06/23 08:24:18;;;;;;;3.57;1.87;;;14.00;61.40;;;;;;5054392;28;20669;-77
2022/06/23 08:26:55;;;;;;;2.80;2.00;;;14.00;61.90;;;;;;5054888;28;20231;-77
2022/06/23 08:29:29;;;;;;;7.27;2.00;;;14.00;61.80;;;;;;5054516;28;20183;-78
2022/06/23 08:31:59;;;;;;;2.90;1.73;;;14.00;61.90;;;;;;5053449;28;20570;-77
2022/06/23 08:34:29;;;;;;;5.43;1.90;;;13.90;61.90;;;;;;5053140;28;20191;-77
2022/06/23 08:37:06;;;;;;;3.03;2.13;;;14.00;62.10;;;;;;5054003;28;20602;-77
2022/06/23 08:39:53;;;;;;;4.23;2.00;;;13.90;62.40;;;;;;5054334;28;20199;-78
2022/06/23 08:42:42;;;;;;;5.30;1.97;;;13.90;62.70;;;;;;5057069;28;20658;-80
2022/06/23 08:45:18;;;;;;;2.83;1.70;;;13.80;63.00;;;;;;5061106;28;20180;-77
2022/06/23 08:48:14;;;;;;;2.90;1.90;;;13.80;63.20;;;;;;5054766;28;20168;-78
2022/06/23 08:50:54;;;;;;;2.87;1.80;;;13.80;63.20;;;;;;5054000;28;20194;-82
2022/06/23 08:53:47;;;;;;;7.83;1.80;;;13.80;63.10;;;;;;5062743;28;20234;-76
2022/06/23 08:56:39;;;;;;;2.63;1.80;;;13.80;63.20;;;;;;5068272;28;20571;-77
2022/06/23 08:59:44;;;;;;;5.67;2.03;;;13.70;63.80;;;;;;5053718;28;20641;-77
2022/06/23 09:02:21;;;;;;;5.13;2.67;;;13.70;64.30;;;;;;5054053;28;20168;-77
2022/06/23 09:05:20;;;;;;;3.23;2.47;;;13.60;64.60;;;;;;5053776;28;20172;-77
2022/06/23 09:08:17;;;;;;;5.27;2.20;;;13.50;65.00;;;;;;5062426;28;20249;-77
2022/06/23 09:11:06;;;;;;;5.00;2.30;;;13.50;64.80;;;;;;5054206;28;20200;-77
2022/06/23 09:13:51;;;;;;;3.80;2.27;;;13.40;65.10;;;;;;5061120;28;20233;-77
2022/06/23 09:16:29;;;;;;;2.90;2.23;;;13.30;65.40;;;;;;5059820;28;20536;-77
2022/06/23 09:18:59;;;;;;;3.13;2.33;;;13.30;65.80;;;;;;5069893;28;20186;-77
2022/06/23 09:21:34;;;;;;;4.90;2.10;;;13.20;66.20;;;;;;5064697;28;20546;-76
2022/06/23 09:24:19;;;;;;;3.80;1.80;;;13.20;66.30;;;;;;5063983;28;20190;-77
2022/06/23 09:27:31;;;;;;;3.20;1.87;;;13.20;66.20;;;;;;5053732;28;20304;-76
2022/06/23 09:30:04;;;;;;;6.03;2.53;;;13.20;66.90;;;;;;5053376;28;20266;-77
2022/06/23 09:33:01;;;;;;;2.93;2.10;;;13.10;66.80;;;;;;5053653;28;20593;-76
2022/06/23 09:36:01;;;;;;;2.40;1.80;;;13.00;67.40;;;;;;5053950;28;20165;-75
2022/06/23 09:38:39;;;;;;;3.90;2.00;;;12.90;67.60;;;;;;5069751;28;20251;-76
2022/06/23 09:41:43;;;;;;;2.70;1.90;;;12.80;67.90;;;;;;5062050;28;20171;-76
2022/06/23 09:44:31;;;;;;;2.43;2.17;;;12.80;69.00;;;;;;5062839;28;20206;-77
2022/06/23 09:47:04;;;;;;;3.13;2.20;;;12.80;68.20;;;;;;5065122;28;20657;-77
2022/06/23 09:50:07;;;;;;;3.83;2.20;;;12.70;68.70;;;;;;5064116;28;20257;-77
2022/06/23 09:53:11;;;;;;;2.43;2.00;;;12.80;69.00;;;;;;5058587;28;20211;-77
2022/06/23 09:55:59;;;;;;;3.87;2.17;;;12.70;68.10;;;;;;5056962;28;20205;-77
2022/06/23 09:58:47;;;;;;;6.50;1.93;;;12.70;68.10;;;;;;5059881;28;20183;-77
2022/06/23 10:02:05;;;;;;;2.87;2.10;;;12.80;68.50;;;;;;5053247;28;20175;-77
2022/06/23 10:04:32;;;;;;;3.67;1.80;;;12.80;69.20;;;;;;5059766;28;20187;-77
2022/06/23 10:07:12;;;;;;;3.83;1.57;;;12.70;69.20;;;;;;5053203;28;20172;-77
2022/06/23 10:10:01;;;;;;;4.73;2.27;;;12.70;69.30;;;;;;5056538;28;20636;-77
2022/06/23 10:12:34;;;;;;;3.77;2.23;;;12.60;69.90;;;;;;5052262;28;20229;-77
2022/06/23 10:15:38;;;;;;;4.33;2.87;;;12.60;70.30;;;;;;5072104;28;20179;-76
2022/06/23 10:18:14;;;;;;;5.13;3.10;;;12.50;70.00;;;;;;5068436;28;20163;-75
2022/06/23 10:20:58;;;;;;;7.10;3.37;;;12.50;70.60;;;;;;5063541;28;20177;-74
2022/06/23 10:23:58;;;;;;;8.90;4.17;;;12.50;70.90;;;;;;5064409;28;20179;-74
2022/06/23 10:26:43;;;;;;;4.53;3.23;;;12.40;71.10;;;;;;5062349;28;20223;-74
2022/06/23 10:29:22;;;;;;;6.17;2.87;;;12.40;70.90;;;;;;5052665;28;20282;-73
2022/06/23 10:32:22;;;;;;;3.50;2.60;;;12.30;70.90;;;;;;5063444;28;20213;-75
2022/06/23 10:35:05;;;;;;;2.80;2.50;;;12.30;71.20;;;;;;5065569;28;20655;-76
2022/06/23 10:37:38;;;;;;;4.67;2.77;;;12.40;70.80;;;;;;5062868;28;20183;-76
2022/06/23 10:40:27;;;;;;;3.87;3.13;;;12.40;70.90;;;;;;5052527;28;20187;-75
2022/06/23 10:43:18;;;;;;;4.57;2.80;;;12.40;71.00;;;;;;5052526;28;20650;-75
2022/06/23 10:45:48;;;;;;;3.70;2.57;;;12.40;71.00;;;;;;5054191;28;20665;-75
2022/06/23 10:48:55;;;;;;;4.23;2.63;;;12.30;70.70;;;;;;5061582;28;20284;-75
2022/06/23 10:51:42;;;;;;;2.77;2.13;;;12.30;71.10;;;;;;5054371;28;20577;-75
2022/06/23 10:54:51;;;;;;;3.63;2.43;;;12.30;71.40;;;;;;5068769;28;20209;-76
2022/06/23 10:57:18;;;;;;;6.63;2.60;;;12.20;71.30;;;;;;5063289;28;20186;-75
2022/06/23 11:00:11;;;;;;;4.43;2.87;;;12.20;71.10;;;;;;5052319;28;20179;-77
2022/06/23 11:03:08;;;;;;;3.13;2.30;;;12.20;71.30;;;;;;5075995;28;20762;-76
2022/06/23 11:05:51;;;;;;;3.40;2.50;;;12.20;71.50;;;;;;5058714;28;20581;-75
2022/06/23 11:08:30;;;;;;;3.17;2.40;;;12.10;71.50;;;;;;5068812;28;20209;-77
2022/06/23 11:11:16;;;;;;;7.13;2.47;;;12.10;71.90;;;;;;5063556;28;20201;-76
2022/06/23 11:13:58;;;;;;;3.40;2.43;;;12.00;71.80;;;;;;5066716;28;20317;-76
2022/06/23 11:16:32;;;;;;;4.37;2.60;;;12.00;72.30;;;;;;5067036;28;20178;-76
2022/06/23 11:19:37;;;;;;;5.17;2.53;;;12.00;72.80;;;;;;5064423;28;20300;-76
2022/06/23 11:22:37;;;;;;;4.73;2.90;;;12.00;73.00;;;;;;5047108;28;20221;-76
2022/06/23 11:25:41;;;;;;;2.90;2.37;;;11.80;73.10;;;;;;5052692;28;20198;-75
2022/06/23 11:28:41;;;;;;;3.67;2.30;;;11.80;73.50;;;;;;5068489;28;20199;-75
2022/06/23 11:31:26;;;;;;;4.37;2.40;;;11.80;73.30;;;;;;5069720;28;20669;-76
2022/06/23 11:34:11;;;;;;;4.27;2.90;;;11.80;74.00;;;;;;5081005;28;20205;-75
2022/06/23 11:36:53;;;;;;;3.43;2.67;;;11.80;74.10;;;;;;5065250;28;20544;-75
2022/06/23 11:39:20;;;;;;;4.13;2.70;;;11.70;73.80;;;;;;5055546;28;20172;-75
2022/06/23 11:42:15;;;;;;;3.83;2.40;;;11.70;74.10;;;;;;5068925;28;20662;-74
2022/06/23 11:44:42;;;;;;;2.57;2.33;;;11.60;74.30;;;;;;5066557;28;20202;-76
2022/06/23 11:47:22;;;;;;;4.73;2.40;;;11.50;74.50;;;;;;5078788;28;20175;-75
2022/06/23 11:49:57;;;;;;;3.70;2.60;;;11.50;74.60;;;;;;5074624;28;20187;-75
2022/06/23 11:52:36;;;;;;;3.30;2.53;;;11.50;74.90;;;;;;5071316;28;20209;-75
2022/06/23 11:55:25;;;;;;;4.83;2.53;;;11.50;75.20;;;;;;5059018;28;20245;-76
2022/06/23 11:58:07;;;;;;;6.53;2.90;;;11.40;75.20;;;;;;5055480;28;20180;-75
2022/06/23 12:00:55;;;;;;;5.57;3.10;;;11.30;75.50;;;;;;5074036;28;20186;-74
2022/06/23 12:03:58;;;;;;;3.27;2.67;;;11.30;75.80;;;;;;5061031;28;20191;-75
2022/06/23 12:06:44;;;;;;;4.87;2.70;;;11.30;76.20;;;;;;5068830;28;20187;-75
2022/06/23 12:09:30;;;;;;;3.57;2.70;;;11.30;76.20;;;;;;5055226;28;20183;-75
2022/06/23 12:12:00;;;;;;;2.83;2.37;;;11.20;76.60;;;;;;5059080;28;20191;-75
2022/06/23 12:14:28;;;;;;;3.60;2.37;;;11.20;76.80;;;;;;5055863;28;20298;-75
2022/06/23 12:17:09;;;;;;;3.47;2.80;;;11.20;76.70;;;;;;5067709;28;20199;-75
2022/06/23 12:19:46;;;;;;;3.37;2.70;;;11.20;76.90;;;;;;5061764;28;20179;-76
2022/06/23 12:22:25;;;;;;;5.93;3.07;;;11.20;77.00;;;;;;5064324;28;20179;-77
2022/06/23 12:25:26;;;;;;;5.50;3.03;;;11.20;77.10;;;;;;5067379;28;20175;-75
2022/06/23 12:28:24;;;;;;;7.20;3.60;;;11.20;77.00;;;;;;5067438;28;20513;-76
2022/06/23 12:31:18;;;;;;;4.70;3.57;;;11.20;77.10;;;;;;5067365;28;20233;-75
2022/06/23 12:33:56;;;;;;;8.13;4.03;;;11.20;77.20;;;;;;5054480;28;20685;-75
2022/06/23 12:36:27;;;;;;;3.83;3.00;;;11.20;77.40;;;;;;5054786;28;20659;-75
2022/06/23 12:38:59;;;;;;;5.90;3.73;;;11.10;77.30;;;;;;5071723;28;20185;-75
2022/06/23 12:41:43;;;;;;;7.23;3.93;;;11.10;77.60;;;;;;5068789;28;20179;-75
2022/06/23 12:44:24;;;;;;;8.07;4.60;;;11.10;77.40;;;;;;5063464;28;20257;-75
2022/06/23 12:47:25;;;;;;;5.40;4.30;;;11.00;77.90;;;;;;5067892;28;20176;-74
2022/06/23 12:50:08;;;;;;;5.30;3.97;;;11.00;77.90;;;;;;5058170;28;20209;-74
2022/06/23 12:52:53;;;;;;;8.10;4.47;;;10.90;78.20;;;;;;5055993;28;20635;-74
2022/06/23 12:55:39;;;;;;;6.10;4.60;;;11.00;78.30;;;;;;5055110;28;20179;-74
2022/06/23 12:58:15;;;;;;;5.27;4.40;;;11.00;77.60;;;;;;5071122;28;20581;-75
2022/06/23 13:01:07;;;;;;;5.23;3.93;;;10.90;77.90;;;;;;5062369;28;20261;-74
2022/06/23 13:03:46;;;;;;;6.23;3.80;;;10.90;78.30;;;;;;5054008;28;20183;-74
2022/06/23 13:06:38;;;;;;;5.27;3.47;;;10.90;78.40;;;;;;5060623;28;20636;-74
2022/06/23 13:09:45;;;;;;;6.73;4.30;;;10.90;78.70;;;;;;5053912;28;20186;-74
2022/06/23 13:12:15;;;;;;;4.77;3.83;;;10.80;78.90;;;;;;5051477;28;20218;-74
2022/06/23 13:14:53;;;;;;;5.67;3.93;;;10.80;79.00;;;;;;5055322;28;20215;-75
2022/06/23 13:17:34;;;;;;;4.57;3.40;;;10.90;78.90;;;;;;5077973;28;20186;-74
2022/06/23 13:20:26;;;;;;;4.50;3.40;;;10.80;78.60;;;;;;5053901;28;20186;-74
2022/06/23 13:23:02;;;;;;;5.93;3.53;;;10.80;78.40;;;;;;5055669;28;20180;-74
2022/06/23 13:25:36;;;;;;;4.93;3.40;;;10.80;78.90;;;;;;5055056;28;20206;-74
2022/06/23 13:28:06;;;;;;;6.33;3.60;;;10.80;78.70;;;;;;5073279;28;20198;-74
2022/06/23 13:30:55;;;;;;;6.87;3.50;;;10.80;79.00;;;;;;5053300;28;20183;-74
2022/06/23 13:33:48;;;;;;;5.97;3.70;;;10.80;78.90;;;;;;5053691;28;20211;-75
2022/06/23 13:36:29;;;;;;;8.13;4.17;;;10.80;78.80;;;;;;5063606;28;20193;-75
2022/06/23 13:39:19;;;;;;;5.30;3.43;;;10.70;78.90;;;;;;5064239;28;20612;-74
2022/06/23 13:42:15;;;;;;;5.67;3.20;;;10.70;78.70;;;;;;5053615;28;20192;-74
2022/06/23 13:44:49;;;;;;;3.23;2.80;;;10.70;78.80;;;;;;5050251;28;20202;-75
2022/06/23 13:47:20;;;;;;;2.97;2.30;;;10.70;78.30;;;;;;5066018;28;20305;-75
2022/06/23 13:49:48;;;;;;;4.63;2.77;;;10.80;77.90;;;;;;5059950;28;20594;-75
2022/06/23 13:52:33;;;;;;;3.80;3.10;;;10.70;77.70;;;;;;5066649;28;20756;-74
2022/06/23 13:55:16;;;;;;;3.13;2.83;;;10.70;77.50;;;;;;5066978;28;20183;-75
2022/06/23 13:58:03;;;;;;;3.43;2.53;;;10.80;77.30;;;;;;5060502;28;20187;-75
2022/06/23 14:00:38;;;;;;;6.37;2.87;;;10.80;77.60;;;;;;5053057;28;20191;-76
2022/06/23 14:03:28;;;;;;;5.53;2.80;;;10.70;77.60;;;;;;5053161;28;20660;-74
2022/06/23 14:06:16;;;;;;;4.73;2.90;;;10.70;78.00;;;;;;5053255;28;20539;-76
2022/06/23 14:09:01;;;;;;;10.10;3.13;;;10.70;77.80;;;;;;5053131;28;20228;-76
2022/06/23 14:11:31;;;;;;;4.47;3.20;;;10.60;77.80;;;;;;5057472;28;20244;-76
2022/06/23 14:14:16;;;;;;;9.37;3.10;;;10.50;78.40;;;;;;5052905;28;20210;-75